createdAt,value
2022-08-20T00:00:06.893Z,18.89
2022-08-20T00:00:41.149Z,18.81
2022-08-20T00:01:12.662Z,18.80
2022-08-20T00:01:44.858Z,18.77
2022-08-20T00:02:16.627Z,18.75
2022-08-20T00:02:50.822Z,18.72
2022-08-20T00:03:29.111Z,18.76
2022-08-20T00:04:01.718Z,18.77
2022-08-20T00:04:33.228Z,18.78
2022-08-20T00:05:04.872Z,18.78
2022-08-20T00:05:38.791Z,18.80
2022-08-20T00:06:14.729Z,18.86
2022-08-20T00:06:46.233Z,18.78
2022-08-20T00:07:17.951Z,18.74
2022-08-20T00:07:49.551Z,18.77
2022-08-20T00:08:21.812Z,18.74
2022-08-20T00:08:53.235Z,18.72
2022-08-20T00:09:24.675Z,18.75
2022-08-20T00:10:01.452Z,18.62
2022-08-20T00:10:33.518Z,18.62
2022-08-20T00:11:05.652Z,18.65
2022-08-20T00:11:37.677Z,18.67
2022-08-20T00:12:09.857Z,18.70
2022-08-20T00:12:44.696Z,18.79
2022-08-20T00:13:18.070Z,18.79
2022-08-20T00:13:51.510Z,18.75
2022-08-20T00:14:23.033Z,18.76
2022-08-20T00:14:54.493Z,18.77
2022-08-20T00:15:28.428Z,18.73
2022-08-20T00:15:59.941Z,18.75
2022-08-20T00:16:32.667Z,18.73
2022-08-20T00:17:04.278Z,18.68
2022-08-20T00:17:38.812Z,18.63
2022-08-20T00:18:10.514Z,18.69
2022-08-20T00:18:44.365Z,18.73
2022-08-20T00:19:15.837Z,18.67
2022-08-20T00:19:47.288Z,18.62
2022-08-20T00:20:19.565Z,18.66
2022-08-20T00:20:51.954Z,18.65
2022-08-20T00:21:25.468Z,18.69
2022-08-20T00:21:58.169Z,18.73
2022-08-20T00:22:30.768Z,18.71
2022-08-20T00:23:03.136Z,18.74
2022-08-20T00:23:39.656Z,18.76
2022-08-20T00:24:11.076Z,18.79
2022-08-20T00:24:42.846Z,18.84
2022-08-20T00:25:14.591Z,18.83
2022-08-20T00:25:46.542Z,18.81
2022-08-20T00:26:19.048Z,18.83
2022-08-20T00:26:52.257Z,18.80
2022-08-20T00:27:24.387Z,18.81
2022-08-20T00:27:56.783Z,18.67
2022-08-20T00:28:28.279Z,18.65
2022-08-20T00:28:59.740Z,18.63
2022-08-20T00:29:31.560Z,18.66
2022-08-20T00:30:04.828Z,18.69
2022-08-20T00:30:36.532Z,18.69
2022-08-20T00:31:09.269Z,18.70
2022-08-20T00:31:40.698Z,18.71
2022-08-20T00:32:12.288Z,18.67
2022-08-20T00:32:44.736Z,18.62
2022-08-20T00:33:17.488Z,18.54
2022-08-20T00:33:49.127Z,18.56
2022-08-20T00:34:20.548Z,18.58
2022-08-20T00:34:51.989Z,18.52
2022-08-20T00:35:26.149Z,18.51
2022-08-20T00:35:57.759Z,18.44
2022-08-20T00:36:32.409Z,18.45
2022-08-20T00:37:04.804Z,18.52
2022-08-20T00:37:36.280Z,18.52
2022-08-20T00:38:08.249Z,18.57
2022-08-20T00:38:40.808Z,18.59
2022-08-20T00:39:12.366Z,18.55
2022-08-20T00:39:44.151Z,18.61
2022-08-20T00:40:22.746Z,18.60
2022-08-20T00:40:58.136Z,18.59
2022-08-20T00:41:29.834Z,18.61
2022-08-20T00:42:01.528Z,18.59
2022-08-20T00:42:40.020Z,18.57
2022-08-20T00:43:25.582Z,18.62
2022-08-20T00:44:05.880Z,18.66
2022-08-20T00:44:37.359Z,18.62
2022-08-20T00:45:09.570Z,18.67
2022-08-20T00:45:41.000Z,18.69
2022-08-20T00:46:14.159Z,18.71
2022-08-20T00:46:46.530Z,18.72
2022-08-20T00:47:18.052Z,18.74
2022-08-20T00:47:51.458Z,18.71
2022-08-20T00:48:25.323Z,18.72
2022-08-20T00:48:58.586Z,18.67
2022-08-20T00:49:32.053Z,18.61
2022-08-20T00:50:06.361Z,18.55
2022-08-20T00:50:37.813Z,18.54
2022-08-20T00:51:09.235Z,18.45
2022-08-20T00:51:42.389Z,18.49
2022-08-20T00:52:15.424Z,18.56
2022-08-20T00:52:49.385Z,18.57
2022-08-20T00:53:22.914Z,18.57
2022-08-20T00:53:56.149Z,18.55
2022-08-20T00:54:50.764Z,18.56
2022-08-20T00:55:24.410Z,18.51
2022-08-20T00:55:58.026Z,18.46
2022-08-20T00:56:31.174Z,18.41
2022-08-20T00:57:04.874Z,18.44
2022-08-20T00:57:59.806Z,18.42
2022-08-20T00:58:33.612Z,18.31
2022-08-20T00:59:06.230Z,18.37
2022-08-20T00:59:40.031Z,18.37
2022-08-20T01:00:14.063Z,18.41
2022-08-20T01:00:46.766Z,18.39
2022-08-20T01:01:19.294Z,18.41
2022-08-20T01:01:55.903Z,18.41
2022-08-20T01:02:28.377Z,18.31
2022-08-20T01:03:00.759Z,18.37
2022-08-20T01:03:33.193Z,18.40
2022-08-20T01:04:05.525Z,18.38
2022-08-20T01:04:37.360Z,18.35
2022-08-20T01:05:10.126Z,18.31
2022-08-20T01:05:44.716Z,18.28
2022-08-20T01:06:16.304Z,18.22
2022-08-20T01:06:48.701Z,18.23
2022-08-20T01:07:20.816Z,18.26
2022-08-20T01:07:53.816Z,18.19
2022-08-20T01:08:26.849Z,18.17
2022-08-20T01:09:02.245Z,18.13
2022-08-20T01:09:58.174Z,18.11
2022-08-20T01:10:27.743Z,18.18
2022-08-20T01:11:10.407Z,18.23
2022-08-20T01:11:41.849Z,18.32
2022-08-20T01:12:13.812Z,18.40
2022-08-20T01:12:46.429Z,18.44
2022-08-20T01:13:20.472Z,18.45
2022-08-20T01:13:51.960Z,18.47
2022-08-20T01:14:28.556Z,18.42
2022-08-20T01:15:01.439Z,18.39
2022-08-20T01:15:32.875Z,18.37
2022-08-20T01:16:05.147Z,18.34
2022-08-20T01:16:36.630Z,18.20
2022-08-20T01:17:17.674Z,18.22
2022-08-20T01:17:50.583Z,18.24
2022-08-20T01:18:25.045Z,18.35
2022-08-20T01:18:57.691Z,18.36
2022-08-20T01:19:30.650Z,18.35
2022-08-20T01:20:02.132Z,18.37
2022-08-20T01:20:34.762Z,18.33
2022-08-20T01:21:06.384Z,18.33
2022-08-20T01:21:37.953Z,18.37
2022-08-20T01:22:28.103Z,18.40
2022-08-20T01:23:23.284Z,18.39
2022-08-20T01:23:55.053Z,18.37
2022-08-20T01:24:33.103Z,18.35
2022-08-20T01:25:06.464Z,18.38
2022-08-20T01:25:40.903Z,18.39
2022-08-20T01:26:14.471Z,18.38
2022-08-20T01:26:46.145Z,18.37
2022-08-20T01:27:18.007Z,18.40
2022-08-20T01:27:55.113Z,18.43
2022-08-20T01:28:32.625Z,18.44
2022-08-20T01:29:08.650Z,18.49
2022-08-20T01:29:40.127Z,18.49
2022-08-20T01:30:14.045Z,18.47
2022-08-20T01:30:45.507Z,18.52
2022-08-20T01:31:18.491Z,18.52
2022-08-20T01:31:51.612Z,18.52
2022-08-20T01:32:23.075Z,18.53
2022-08-20T01:32:54.616Z,18.50
2022-08-20T01:33:26.148Z,18.48
2022-08-20T01:33:58.211Z,18.45
2022-08-20T01:34:30.068Z,18.43
2022-08-20T01:35:01.676Z,18.41
2022-08-20T01:35:39.932Z,18.47
2022-08-20T01:36:12.829Z,18.41
2022-08-20T01:36:46.594Z,18.33
2022-08-20T01:37:18.179Z,18.40
2022-08-20T01:37:49.773Z,18.38
2022-08-20T01:38:21.324Z,18.39
2022-08-20T01:38:54.679Z,18.32
2022-08-20T01:39:30.550Z,18.31
2022-08-20T01:40:04.003Z,18.28
2022-08-20T01:40:40.617Z,18.29
2022-08-20T01:41:31.072Z,18.28
2022-08-20T01:42:08.550Z,18.19
2022-08-20T01:42:58.514Z,18.19
2022-08-20T01:43:32.276Z,18.21
2022-08-20T01:44:09.205Z,18.27
2022-08-20T01:44:50.072Z,18.20
2022-08-20T01:45:21.523Z,18.22
2022-08-20T01:45:58.553Z,18.26
2022-08-20T01:46:32.853Z,18.23
2022-08-20T01:47:10.053Z,18.22
2022-08-20T01:47:42.387Z,18.22
2022-08-20T01:48:16.263Z,18.18
2022-08-20T01:48:47.887Z,18.15
2022-08-20T01:49:22.843Z,18.17
2022-08-20T01:49:55.987Z,18.14
2022-08-20T01:50:28.168Z,18.18
2022-08-20T01:51:19.901Z,18.20
2022-08-20T01:51:55.055Z,18.22
2022-08-20T01:52:45.248Z,18.17
2022-08-20T01:53:16.930Z,18.25
2022-08-20T01:53:49.559Z,18.25
2022-08-20T01:54:21.342Z,18.21
2022-08-20T01:54:53.034Z,18.17
2022-08-20T01:55:26.685Z,18.22
2022-08-20T01:55:58.212Z,18.25
2022-08-20T01:56:30.852Z,18.26
2022-08-20T01:57:07.135Z,18.26
2022-08-20T01:57:38.652Z,18.32
2022-08-20T01:58:10.121Z,18.36
2022-08-20T01:58:42.929Z,18.38
2022-08-20T01:59:14.361Z,18.41
2022-08-20T01:59:46.146Z,18.45
2022-08-20T02:00:19.601Z,18.36
2022-08-20T02:00:52.247Z,18.33
2022-08-20T02:01:26.473Z,18.39
2022-08-20T02:01:58.810Z,18.20
2022-08-20T02:02:30.340Z,18.14
2022-08-20T02:03:03.227Z,18.11
2022-08-20T02:03:38.801Z,18.10
2022-08-20T02:04:15.407Z,18.15
2022-08-20T02:04:47.310Z,18.22
2022-08-20T02:05:19.238Z,18.22
2022-08-20T02:05:50.687Z,18.30
2022-08-20T02:06:25.543Z,18.29
2022-08-20T02:06:58.836Z,18.30
2022-08-20T02:07:31.549Z,18.26
2022-08-20T02:08:03.881Z,18.20
2022-08-20T02:08:35.383Z,18.28
2022-08-20T02:09:07.664Z,18.32
2022-08-20T02:09:39.473Z,18.40
2022-08-20T02:10:11.995Z,18.35
2022-08-20T02:10:46.150Z,18.39
2022-08-20T02:11:17.584Z,18.38
2022-08-20T02:11:49.342Z,18.38
2022-08-20T02:12:20.838Z,18.39
2022-08-20T02:12:53.092Z,18.38
2022-08-20T02:13:25.360Z,18.47
2022-08-20T02:13:58.112Z,18.41
2022-08-20T02:14:30.225Z,18.40
2022-08-20T02:15:02.559Z,18.32
2022-08-20T02:15:37.234Z,18.34
2022-08-20T02:16:09.248Z,18.23
2022-08-20T02:16:43.652Z,18.21
2022-08-20T02:17:26.132Z,18.19
2022-08-20T02:17:57.844Z,18.19
2022-08-20T02:18:29.287Z,18.24
2022-08-20T02:19:02.031Z,18.19
2022-08-20T02:19:35.043Z,18.21
2022-08-20T02:20:10.899Z,18.20
2022-08-20T02:20:43.388Z,18.23
2022-08-20T02:21:14.825Z,18.26
2022-08-20T02:21:49.410Z,18.28
2022-08-20T02:22:22.088Z,18.30
2022-08-20T02:22:58.707Z,18.33
2022-08-20T02:23:30.495Z,18.36
2022-08-20T02:24:02.409Z,18.34
2022-08-20T02:24:35.682Z,18.30
2022-08-20T02:25:08.002Z,18.30
2022-08-20T02:25:40.349Z,18.30
2022-08-20T02:26:11.878Z,18.32
2022-08-20T02:26:43.396Z,18.30
2022-08-20T02:27:14.864Z,18.32
2022-08-20T02:27:46.691Z,18.32
2022-08-20T02:28:19.783Z,18.33
2022-08-20T02:28:51.541Z,18.29
2022-08-20T02:29:23.811Z,18.23
2022-08-20T02:29:55.220Z,18.19
2022-08-20T02:30:29.204Z,18.18
2022-08-20T02:31:01.624Z,18.25
2022-08-20T02:31:35.020Z,18.27
2022-08-20T02:32:32.190Z,18.14
2022-08-20T02:32:59.864Z,18.16
2022-08-20T02:33:31.404Z,18.16
2022-08-20T02:34:21.750Z,18.18
2022-08-20T02:34:54.411Z,18.18
2022-08-20T02:35:26.127Z,18.19
2022-08-20T02:35:57.604Z,18.22
2022-08-20T02:36:29.368Z,18.20
2022-08-20T02:37:01.336Z,18.21
2022-08-20T02:37:32.847Z,18.13
2022-08-20T02:38:04.265Z,18.12
2022-08-20T02:38:35.757Z,18.13
2022-08-20T02:39:09.535Z,18.09
2022-08-20T02:39:41.414Z,18.12
2022-08-20T02:40:14.636Z,18.18
2022-08-20T02:40:46.461Z,18.15
2022-08-20T02:41:18.498Z,18.20
2022-08-20T02:41:50.265Z,18.18
2022-08-20T02:42:21.937Z,18.06
2022-08-20T02:42:53.918Z,18.05
2022-08-20T02:43:25.411Z,17.98
2022-08-20T02:43:57.139Z,17.94
2022-08-20T02:44:28.648Z,17.97
2022-08-20T02:45:00.118Z,17.88
2022-08-20T02:45:36.090Z,17.91
2022-08-20T02:46:08.021Z,17.98
2022-08-20T02:46:39.508Z,17.99
2022-08-20T02:47:12.766Z,18.02
2022-08-20T02:47:45.467Z,18.04
2022-08-20T02:48:21.348Z,18.07
2022-08-20T02:48:53.479Z,18.09
2022-08-20T02:49:24.947Z,18.14
2022-08-20T02:49:57.937Z,18.16
2022-08-20T02:50:29.632Z,18.19
2022-08-20T02:51:01.979Z,18.16
2022-08-20T02:51:33.620Z,18.01
2022-08-20T02:52:05.138Z,18.12
2022-08-20T02:52:36.575Z,18.15
2022-08-20T02:53:08.005Z,18.11
2022-08-20T02:53:41.214Z,18.05
2022-08-20T02:54:12.842Z,18.01
2022-08-20T02:54:44.655Z,18.08
2022-08-20T02:55:23.133Z,18.11
2022-08-20T02:56:00.527Z,18.05
2022-08-20T02:56:31.982Z,18.05
2022-08-20T02:57:04.394Z,18.07
2022-08-20T02:57:35.904Z,18.01
2022-08-20T02:58:07.371Z,18.07
2022-08-20T02:58:39.137Z,18.10
2022-08-20T02:59:10.759Z,18.08
2022-08-20T02:59:52.322Z,18.02
2022-08-20T03:00:23.881Z,18.05
2022-08-20T03:00:56.687Z,17.99
2022-08-20T03:01:28.202Z,17.99
2022-08-20T03:02:00.320Z,18.03
2022-08-20T03:02:32.512Z,18.04
2022-08-20T03:03:04.031Z,18.00
2022-08-20T03:03:35.501Z,17.97
2022-08-20T03:04:06.968Z,18.03
2022-08-20T03:04:38.388Z,18.09
2022-08-20T03:05:10.036Z,18.09
2022-08-20T03:05:43.561Z,18.13
2022-08-20T03:06:16.120Z,18.14
2022-08-20T03:06:47.641Z,17.99
2022-08-20T03:07:19.099Z,17.97
2022-08-20T03:07:53.806Z,17.90
2022-08-20T03:08:25.581Z,17.92
2022-08-20T03:08:57.319Z,17.97
2022-08-20T03:09:28.763Z,17.98
2022-08-20T03:10:00.628Z,18.00
2022-08-20T03:10:33.569Z,17.95
2022-08-20T03:11:05.303Z,17.75
2022-08-20T03:11:36.909Z,17.73
2022-08-20T03:12:08.583Z,17.59
2022-08-20T03:12:40.356Z,17.56
2022-08-20T03:13:12.665Z,17.49
2022-08-20T03:13:44.167Z,17.47
2022-08-20T03:14:15.596Z,17.44
2022-08-20T03:14:47.051Z,17.42
2022-08-20T03:15:18.720Z,17.42
2022-08-20T03:15:55.356Z,17.40
2022-08-20T03:16:30.101Z,17.39
2022-08-20T03:17:01.569Z,17.35
2022-08-20T03:17:33.034Z,17.34
2022-08-20T03:18:04.456Z,17.33
2022-08-20T03:18:37.633Z,17.33
2022-08-20T03:19:09.152Z,17.43
2022-08-20T03:19:40.571Z,17.41
2022-08-20T03:20:12.522Z,17.39
2022-08-20T03:20:46.018Z,17.43
2022-08-20T03:21:18.361Z,17.47
2022-08-20T03:21:50.013Z,17.49
2022-08-20T03:22:21.461Z,17.32
2022-08-20T03:22:53.120Z,17.29
2022-08-20T03:23:24.683Z,17.31
2022-08-20T03:23:56.111Z,17.30
2022-08-20T03:24:27.541Z,17.27
2022-08-20T03:24:58.959Z,17.22
2022-08-20T03:25:30.403Z,17.14
2022-08-20T03:26:02.880Z,17.22
2022-08-20T03:26:36.008Z,17.23
2022-08-20T03:27:07.425Z,17.18
2022-08-20T03:27:39.847Z,17.19
2022-08-20T03:28:11.518Z,17.19
2022-08-20T03:28:43.043Z,17.21
2022-08-20T03:29:14.563Z,17.24
2022-08-20T03:29:46.018Z,17.24
2022-08-20T03:30:17.677Z,17.17
2022-08-20T03:30:50.357Z,17.15
2022-08-20T03:31:21.872Z,17.12
2022-08-20T03:31:53.322Z,17.11
2022-08-20T03:32:24.824Z,17.02
2022-08-20T03:32:57.978Z,17.03
2022-08-20T03:33:31.504Z,17.04
2022-08-20T03:34:03.024Z,17.08
2022-08-20T03:34:34.779Z,17.10
2022-08-20T03:35:06.976Z,17.13
2022-08-20T03:35:39.143Z,17.14
2022-08-20T03:36:10.627Z,17.17
2022-08-20T03:36:42.684Z,17.04
2022-08-20T03:37:14.365Z,16.90
2022-08-20T03:37:54.322Z,16.84
2022-08-20T03:38:33.195Z,16.75
2022-08-20T03:39:06.257Z,16.72
2022-08-20T03:39:38.088Z,16.77
2022-08-20T03:40:11.613Z,16.76
2022-08-20T03:40:43.058Z,16.76
2022-08-20T03:41:14.564Z,16.78
2022-08-20T03:41:46.040Z,16.80
2022-08-20T03:42:17.520Z,16.78
2022-08-20T03:42:48.945Z,16.73
2022-08-20T03:43:20.546Z,16.72
2022-08-20T03:43:52.629Z,16.74
2022-08-20T03:44:24.198Z,16.71
2022-08-20T03:44:58.628Z,16.63
2022-08-20T03:45:32.457Z,16.67
2022-08-20T03:46:04.126Z,16.70
2022-08-20T03:46:36.009Z,16.64
2022-08-20T03:47:09.377Z,16.66
2022-08-20T03:47:41.515Z,16.64
2022-08-20T03:48:15.268Z,16.62
2022-08-20T03:48:46.807Z,16.62
2022-08-20T03:49:20.935Z,16.54
2022-08-20T03:49:52.374Z,16.50
2022-08-20T03:50:26.249Z,16.45
2022-08-20T03:51:00.741Z,16.42
2022-08-20T03:51:34.358Z,16.51
2022-08-20T03:52:24.381Z,16.61
2022-08-20T03:52:55.965Z,16.56
2022-08-20T03:53:31.585Z,16.50
2022-08-20T03:54:03.117Z,16.47
2022-08-20T03:54:34.695Z,16.45
2022-08-20T03:55:07.537Z,16.38
2022-08-20T03:55:39.940Z,16.32
2022-08-20T03:56:12.289Z,16.35
2022-08-20T03:56:43.723Z,16.33
2022-08-20T03:57:15.579Z,16.29
2022-08-20T03:57:54.618Z,16.27
2022-08-20T03:58:30.038Z,16.37
2022-08-20T03:59:08.321Z,16.43
2022-08-20T03:59:39.876Z,16.43
2022-08-20T04:00:13.455Z,16.44
2022-08-20T04:00:49.313Z,16.43
2022-08-20T04:01:45.646Z,16.45
2022-08-20T04:02:12.383Z,16.46
2022-08-20T04:02:43.948Z,16.38
2022-08-20T04:03:15.521Z,16.41
2022-08-20T04:03:48.497Z,16.44
2022-08-20T04:04:22.102Z,16.46
2022-08-20T04:04:55.083Z,16.35
2022-08-20T04:05:28.337Z,16.18
2022-08-20T04:05:59.950Z,16.23
2022-08-20T04:06:31.685Z,16.25
2022-08-20T04:07:16.906Z,16.27
2022-08-20T04:07:48.333Z,16.32
2022-08-20T04:08:21.330Z,16.33
2022-08-20T04:08:54.070Z,16.41
2022-08-20T04:09:25.486Z,16.41
2022-08-20T04:09:57.489Z,16.45
2022-08-20T04:10:28.923Z,16.49
2022-08-20T04:11:00.499Z,16.50
2022-08-20T04:11:33.527Z,16.54
2022-08-20T04:12:05.044Z,16.51
2022-08-20T04:12:48.715Z,16.60
2022-08-20T04:13:24.947Z,16.63
2022-08-20T04:13:56.483Z,16.68
2022-08-20T04:14:27.961Z,16.74
2022-08-20T04:15:01.006Z,16.76
2022-08-20T04:15:34.597Z,16.78
2022-08-20T04:16:11.288Z,16.75
2022-08-20T04:16:46.478Z,16.80
2022-08-20T04:17:20.600Z,16.84
2022-08-20T04:17:54.219Z,16.81
2022-08-20T04:18:26.240Z,16.79
2022-08-20T04:19:01.803Z,16.74
2022-08-20T04:19:34.366Z,16.71
2022-08-20T04:20:06.133Z,16.70
2022-08-20T04:20:38.997Z,16.69
2022-08-20T04:21:10.674Z,16.66
2022-08-20T04:21:42.111Z,16.65
2022-08-20T04:22:16.619Z,16.62
2022-08-20T04:22:58.603Z,16.59
2022-08-20T04:23:31.442Z,16.57
2022-08-20T04:24:03.869Z,16.56
2022-08-20T04:24:35.332Z,16.54
2022-08-20T04:25:08.868Z,16.53
2022-08-20T04:25:42.531Z,16.51
2022-08-20T04:26:14.935Z,16.51
2022-08-20T04:26:46.360Z,16.56
2022-08-20T04:27:17.797Z,16.60
2022-08-20T04:27:51.987Z,16.58
2022-08-20T04:28:28.732Z,16.61
2022-08-20T04:29:00.188Z,16.67
2022-08-20T04:29:31.865Z,16.68
2022-08-20T04:30:05.094Z,16.74
2022-08-20T04:30:36.798Z,16.80
2022-08-20T04:31:08.322Z,16.85
2022-08-20T04:31:39.785Z,16.83
2022-08-20T04:32:12.227Z,16.87
2022-08-20T04:32:43.867Z,16.88
2022-08-20T04:33:17.175Z,16.88
2022-08-20T04:33:54.101Z,16.90
2022-08-20T04:34:25.952Z,16.88
2022-08-20T04:34:58.692Z,16.95
2022-08-20T04:35:30.629Z,16.94
2022-08-20T04:36:02.894Z,16.76
2022-08-20T04:36:35.183Z,16.77
2022-08-20T04:37:16.575Z,16.77
2022-08-20T04:37:48.520Z,16.72
2022-08-20T04:38:20.907Z,16.72
2022-08-20T04:38:52.376Z,16.68
2022-08-20T04:39:23.881Z,16.62
2022-08-20T04:40:14.049Z,16.64
2022-08-20T04:40:55.698Z,16.73
2022-08-20T04:41:27.259Z,16.69
2022-08-20T04:41:58.849Z,16.63
2022-08-20T04:42:30.275Z,16.64
2022-08-20T04:43:02.245Z,16.54
2022-08-20T04:43:35.159Z,16.51
2022-08-20T04:44:06.586Z,16.60
2022-08-20T04:44:39.826Z,16.65
2022-08-20T04:45:11.320Z,16.69
2022-08-20T04:45:42.851Z,16.70
2022-08-20T04:46:14.463Z,16.70
2022-08-20T04:46:45.899Z,16.74
2022-08-20T04:47:21.401Z,16.60
2022-08-20T04:48:09.629Z,16.62
2022-08-20T04:48:49.078Z,16.65
2022-08-20T04:49:25.027Z,16.65
2022-08-20T04:50:00.082Z,16.63
2022-08-20T04:50:39.211Z,16.58
2022-08-20T04:51:12.389Z,16.64
2022-08-20T04:51:43.855Z,16.66
2022-08-20T04:52:15.283Z,16.67
2022-08-20T04:52:49.078Z,16.71
2022-08-20T04:53:25.653Z,16.67
2022-08-20T04:53:57.799Z,16.62
2022-08-20T04:54:29.276Z,16.62
2022-08-20T04:55:00.715Z,16.59
2022-08-20T04:55:33.248Z,16.58
2022-08-20T04:56:04.852Z,16.56
2022-08-20T04:56:39.632Z,16.58
2022-08-20T04:57:11.246Z,16.64
2022-08-20T04:57:43.271Z,16.68
2022-08-20T04:58:16.835Z,16.64
2022-08-20T04:58:48.802Z,16.60
2022-08-20T04:59:20.221Z,16.59
2022-08-20T04:59:55.575Z,16.59
2022-08-20T05:00:31.774Z,16.59
2022-08-20T05:01:05.136Z,16.56
2022-08-20T05:01:36.673Z,16.60
2022-08-20T05:02:08.292Z,16.64
2022-08-20T05:02:39.999Z,16.59
2022-08-20T05:03:12.075Z,16.65
2022-08-20T05:03:43.583Z,16.69
2022-08-20T05:04:15.175Z,16.76
2022-08-20T05:04:47.642Z,16.69
2022-08-20T05:05:19.560Z,16.69
2022-08-20T05:05:51.857Z,16.78
2022-08-20T05:06:25.429Z,16.75
2022-08-20T05:06:56.868Z,16.73
2022-08-20T05:07:28.396Z,16.74
2022-08-20T05:08:00.899Z,16.82
2022-08-20T05:08:33.409Z,16.82
2022-08-20T05:09:04.992Z,16.89
2022-08-20T05:09:43.869Z,16.90
2022-08-20T05:10:17.097Z,16.90
2022-08-20T05:10:48.846Z,16.97
2022-08-20T05:11:35.344Z,16.97
2022-08-20T05:12:08.248Z,17.07
2022-08-20T05:12:43.925Z,17.09
2022-08-20T05:13:28.633Z,17.10
2022-08-20T05:14:00.084Z,17.11
2022-08-20T05:14:31.512Z,17.11
2022-08-20T05:15:03.628Z,17.07
2022-08-20T05:15:35.962Z,17.06
2022-08-20T05:16:08.142Z,17.05
2022-08-20T05:16:40.416Z,17.02
2022-08-20T05:17:14.640Z,16.96
2022-08-20T05:17:46.145Z,16.95
2022-08-20T05:18:18.983Z,16.91
2022-08-20T05:18:52.833Z,16.88
2022-08-20T05:19:24.483Z,16.90
2022-08-20T05:19:55.932Z,16.92
2022-08-20T05:20:31.752Z,16.93
2022-08-20T05:21:06.287Z,16.92
2022-08-20T05:21:38.084Z,16.96
2022-08-20T05:22:09.510Z,17.01
2022-08-20T05:22:40.958Z,16.99
2022-08-20T05:23:13.289Z,17.06
2022-08-20T05:23:44.797Z,17.12
2022-08-20T05:24:16.478Z,17.10
2022-08-20T05:24:47.905Z,17.09
2022-08-20T05:25:21.227Z,17.15
2022-08-20T05:25:52.732Z,17.21
2022-08-20T05:26:26.377Z,17.23
2022-08-20T05:26:59.343Z,17.25
2022-08-20T05:27:31.057Z,17.29
2022-08-20T05:28:07.496Z,17.33
2022-08-20T05:28:52.809Z,17.36
2022-08-20T05:29:29.975Z,17.38
2022-08-20T05:30:07.306Z,17.41
2022-08-20T05:30:43.017Z,17.45
2022-08-20T05:31:15.293Z,17.53
2022-08-20T05:31:46.728Z,17.52
2022-08-20T05:32:18.208Z,17.55
2022-08-20T05:32:50.447Z,17.60
2022-08-20T05:33:25.628Z,17.61
2022-08-20T05:33:57.885Z,17.64
2022-08-20T05:34:29.312Z,17.72
2022-08-20T05:35:01.421Z,17.87
2022-08-20T05:35:38.550Z,18.03
2022-08-20T05:36:10.145Z,18.15
2022-08-20T05:36:49.300Z,18.31
2022-08-20T05:37:20.989Z,18.38
2022-08-20T05:37:52.644Z,18.42
2022-08-20T05:38:26.390Z,18.42
2022-08-20T05:38:57.954Z,18.55
2022-08-20T05:39:29.411Z,18.57
2022-08-20T05:40:00.903Z,18.55
2022-08-20T05:40:34.218Z,18.57
2022-08-20T05:41:05.942Z,18.60
2022-08-20T05:41:38.370Z,18.67
2022-08-20T05:42:11.163Z,18.70
2022-08-20T05:42:43.415Z,18.69
2022-08-20T05:43:14.869Z,18.54
2022-08-20T05:43:46.336Z,18.58
2022-08-20T05:44:23.444Z,18.39
2022-08-20T05:44:55.088Z,18.46
2022-08-20T05:45:26.579Z,18.56
2022-08-20T05:45:58.501Z,18.65
2022-08-20T05:46:31.486Z,18.70
2022-08-20T05:47:04.438Z,18.76
2022-08-20T05:47:42.662Z,18.77
2022-08-20T05:48:15.697Z,18.70
2022-08-20T05:48:47.143Z,18.65
2022-08-20T05:49:20.251Z,18.60
2022-08-20T05:49:52.092Z,18.49
2022-08-20T05:50:23.682Z,18.57
2022-08-20T05:50:55.220Z,18.63
2022-08-20T05:51:27.320Z,18.69
2022-08-20T05:51:59.215Z,18.75
2022-08-20T05:52:31.143Z,18.74
2022-08-20T05:53:03.004Z,18.75
2022-08-20T05:53:34.446Z,18.77
2022-08-20T05:54:06.730Z,18.75
2022-08-20T05:54:38.306Z,18.74
2022-08-20T05:55:10.306Z,18.71
2022-08-20T05:55:41.880Z,18.62
2022-08-20T05:56:13.426Z,18.49
2022-08-20T05:56:44.871Z,18.45
2022-08-20T05:57:19.961Z,18.41
2022-08-20T05:57:53.164Z,18.45
2022-08-20T05:58:26.460Z,18.46
2022-08-20T05:58:59.783Z,18.51
2022-08-20T05:59:31.221Z,18.67
2022-08-20T06:00:05.134Z,18.73
2022-08-20T06:00:42.954Z,18.94
2022-08-20T06:01:14.419Z,18.97
2022-08-20T06:01:45.944Z,19.25
2022-08-20T06:02:35.864Z,19.49
2022-08-20T06:03:26.007Z,19.67
2022-08-20T06:04:16.067Z,19.66
2022-08-20T06:04:47.504Z,19.78
2022-08-20T06:05:27.668Z,19.80
2022-08-20T06:05:59.253Z,19.65
2022-08-20T06:06:45.214Z,19.57
2022-08-20T06:07:17.962Z,19.67
2022-08-20T06:07:50.818Z,19.84
2022-08-20T06:08:26.224Z,19.86
2022-08-20T06:08:57.662Z,19.93
2022-08-20T06:09:31.982Z,19.96
2022-08-20T06:10:04.408Z,20.07
2022-08-20T06:10:36.119Z,20.10
2022-08-20T06:11:08.059Z,20.08
2022-08-20T06:11:39.554Z,20.08
2022-08-20T06:12:11.073Z,20.06
2022-08-20T06:12:44.434Z,19.98
2022-08-20T06:13:15.879Z,19.90
2022-08-20T06:13:47.439Z,19.91
2022-08-20T06:14:19.042Z,19.95
2022-08-20T06:14:50.566Z,19.97
2022-08-20T06:15:22.484Z,19.90
2022-08-20T06:15:55.846Z,19.95
2022-08-20T06:16:29.033Z,20.00
2022-08-20T06:17:02.345Z,20.24
2022-08-20T06:17:39.401Z,20.43
2022-08-20T06:18:27.793Z,20.72
2022-08-20T06:19:00.513Z,21.06
2022-08-20T06:19:35.077Z,20.93
2022-08-20T06:20:07.879Z,20.82
2022-08-20T06:20:39.675Z,20.75
2022-08-20T06:21:11.150Z,20.63
2022-08-20T06:21:42.687Z,20.54
2022-08-20T06:22:18.349Z,20.55
2022-08-20T06:22:53.037Z,20.62
2022-08-20T06:23:25.358Z,20.59
2022-08-20T06:23:59.529Z,20.79
2022-08-20T06:24:33.840Z,20.99
2022-08-20T06:25:06.694Z,21.15
2022-08-20T06:25:38.856Z,21.12
2022-08-20T06:26:11.129Z,20.98
2022-08-20T06:26:42.631Z,21.05
2022-08-20T06:27:14.803Z,21.00
2022-08-20T06:27:46.425Z,20.85
2022-08-20T06:28:18.719Z,20.93
2022-08-20T06:28:50.140Z,20.79
2022-08-20T06:29:26.101Z,20.75
2022-08-20T06:29:57.591Z,20.78
2022-08-20T06:30:29.272Z,20.54
2022-08-20T06:31:00.736Z,20.58
2022-08-20T06:31:32.683Z,20.52
2022-08-20T06:32:04.308Z,20.47
2022-08-20T06:32:35.776Z,20.26
2022-08-20T06:33:07.401Z,20.18
2022-08-20T06:33:38.827Z,20.13
2022-08-20T06:34:10.331Z,19.99
2022-08-20T06:34:49.069Z,19.98
2022-08-20T06:35:22.280Z,19.94
2022-08-20T06:35:54.896Z,19.83
2022-08-20T06:36:27.433Z,19.90
2022-08-20T06:36:59.190Z,19.84
2022-08-20T06:37:32.345Z,19.74
2022-08-20T06:38:05.341Z,19.69
2022-08-20T06:38:38.649Z,19.54
2022-08-20T06:39:10.220Z,19.46
2022-08-20T06:39:42.057Z,19.45
2022-08-20T06:40:14.965Z,19.47
2022-08-20T06:40:46.445Z,19.40
2022-08-20T06:41:18.062Z,19.27
2022-08-20T06:41:49.656Z,19.29
2022-08-20T06:42:21.358Z,19.27
2022-08-20T06:42:52.870Z,19.31
2022-08-20T06:43:24.334Z,19.14
2022-08-20T06:43:56.442Z,19.03
2022-08-20T06:44:28.411Z,19.14
2022-08-20T06:45:00.534Z,19.19
2022-08-20T06:45:32.562Z,18.99
2022-08-20T06:46:06.497Z,19.00
2022-08-20T06:46:38.197Z,18.99
2022-08-20T06:47:09.664Z,18.94
2022-08-20T06:47:41.587Z,18.97
2022-08-20T06:48:15.326Z,18.97
2022-08-20T06:48:47.003Z,19.04
2022-08-20T06:49:18.611Z,18.99
2022-08-20T06:49:50.093Z,19.00
2022-08-20T06:50:29.417Z,19.02
2022-08-20T06:51:01.437Z,18.96
2022-08-20T06:51:34.169Z,18.96
2022-08-20T06:52:05.895Z,18.95
2022-08-20T06:52:52.974Z,18.95
2022-08-20T06:53:25.450Z,18.94
2022-08-20T06:53:56.920Z,18.95
2022-08-20T06:54:29.530Z,18.86
2022-08-20T06:55:01.237Z,18.89
2022-08-20T06:55:32.975Z,18.90
2022-08-20T06:56:04.469Z,18.91
2022-08-20T06:56:36.221Z,18.80
2022-08-20T06:57:07.652Z,18.79
2022-08-20T06:57:39.144Z,18.74
2022-08-20T06:58:30.450Z,18.72
2022-08-20T06:59:02.763Z,18.79
2022-08-20T06:59:34.195Z,18.84
2022-08-20T07:00:06.472Z,18.88
2022-08-20T07:00:38.832Z,18.92
2022-08-20T07:01:11.646Z,18.92
2022-08-20T07:01:43.253Z,18.94
2022-08-20T07:02:15.137Z,18.94
2022-08-20T07:02:48.171Z,18.98
2022-08-20T07:03:20.221Z,18.97
2022-08-20T07:03:54.871Z,18.98
2022-08-20T07:04:28.205Z,18.96
2022-08-20T07:04:59.688Z,19.03
2022-08-20T07:05:33.020Z,19.03
2022-08-20T07:06:04.666Z,19.00
2022-08-20T07:06:36.361Z,18.91
2022-08-20T07:07:15.235Z,18.90
2022-08-20T07:07:47.667Z,18.88
2022-08-20T07:08:22.166Z,18.88
2022-08-20T07:08:54.430Z,18.89
2022-08-20T07:09:26.790Z,18.91
2022-08-20T07:10:17.093Z,18.81
2022-08-20T07:10:49.033Z,18.83